sensor_id;sensor_type;location;lat;lon;timestamp;P1;durP1;ratioP1;P2;durP2;ratioP2
61635;SDS011;59438;45.014;39.006;2022-10-16T00:01:53;14.00;;;3.95;;
61635;SDS011;59438;45.014;39.006;2022-10-16T00:04:19;5.63;;;2.75;;
61635;SDS011;59438;45.014;39.006;2022-10-16T00:06:46;8.23;;;2.92;;
61635;SDS011;59438;45.014;39.006;2022-10-16T00:09:12;6.10;;;3.28;;
61635;SDS011;59438;45.014;39.006;2022-10-16T00:11:39;5.35;;;3.25;;
61635;SDS011;59438;45.014;39.006;2022-10-16T00:14:09;6.90;;;3.45;;
61635;SDS011;59438;45.014;39.006;2022-10-16T00:19:03;5.00;;;2.78;;
61635;SDS011;59438;45.014;39.006;2022-10-16T00:21:30;5.20;;;3.10;;
61635;SDS011;59438;45.014;39.006;2022-10-16T00:23:57;6.57;;;3.22;;
61635;SDS011;59438;45.014;39.006;2022-10-16T00:26:25;3.90;;;2.78;;
61635;SDS011;59438;45.014;39.006;2022-10-16T00:28:52;6.60;;;3.08;;
61635;SDS011;59438;45.014;39.006;2022-10-16T00:31:20;7.68;;;3.22;;
61635;SDS011;59438;45.014;39.006;2022-10-16T00:33:48;5.25;;;3.30;;
61635;SDS011;59438;45.014;39.006;2022-10-16T00:36:16;5.65;;;3.20;;
61635;SDS011;59438;45.014;39.006;2022-10-16T00:38:43;7.00;;;3.00;;
61635;SDS011;59438;45.014;39.006;2022-10-16T00:41:10;4.75;;;2.88;;
61635;SDS011;59438;45.014;39.006;2022-10-16T00:43:40;5.07;;;2.92;;
61635;SDS011;59438;45.014;39.006;2022-10-16T00:46:13;5.50;;;3.28;;
61635;SDS011;59438;45.014;39.006;2022-10-16T00:48:45;6.00;;;2.80;;
61635;SDS011;59438;45.014;39.006;2022-10-16T00:51:16;4.40;;;2.70;;
61635;SDS011;59438;45.014;39.006;2022-10-16T00:53:47;6.07;;;3.42;;
61635;SDS011;59438;45.014;39.006;2022-10-16T00:56:14;6.82;;;3.40;;
61635;SDS011;59438;45.014;39.006;2022-10-16T00:58:42;11.52;;;3.10;;
61635;SDS011;59438;45.014;39.006;2022-10-16T01:01:08;8.07;;;3.65;;
61635;SDS011;59438;45.014;39.006;2022-10-16T01:03:35;4.85;;;2.90;;
61635;SDS011;59438;45.014;39.006;2022-10-16T01:06:12;6.20;;;2.88;;
61635;SDS011;59438;45.014;39.006;2022-10-16T01:08:55;4.70;;;2.90;;
61635;SDS011;59438;45.014;39.006;2022-10-16T01:11:33;6.18;;;2.90;;
61635;SDS011;59438;45.014;39.006;2022-10-16T01:14:06;5.18;;;2.67;;
61635;SDS011;59438;45.014;39.006;2022-10-16T01:16:38;4.38;;;2.30;;
61635;SDS011;59438;45.014;39.006;2022-10-16T01:19:13;5.60;;;2.72;;
61635;SDS011;59438;45.014;39.006;2022-10-16T01:21:47;9.40;;;2.22;;
61635;SDS011;59438;45.014;39.006;2022-10-16T01:24:17;4.95;;;1.92;;
61635;SDS011;59438;45.014;39.006;2022-10-16T01:27:03;4.25;;;2.67;;
61635;SDS011;59438;45.014;39.006;2022-10-16T01:29:34;7.78;;;2.90;;
61635;SDS011;59438;45.014;39.006;2022-10-16T01:32:08;3.55;;;2.35;;
61635;SDS011;59438;45.014;39.006;2022-10-16T01:34:42;6.00;;;2.72;;
61635;SDS011;59438;45.014;39.006;2022-10-16T01:37:14;5.03;;;3.22;;
61635;SDS011;59438;45.014;39.006;2022-10-16T01:39:45;7.10;;;2.92;;
61635;SDS011;59438;45.014;39.006;2022-10-16T01:42:16;8.13;;;3.08;;
61635;SDS011;59438;45.014;39.006;2022-10-16T01:44:47;6.15;;;2.92;;
61635;SDS011;59438;45.014;39.006;2022-10-16T01:47:14;5.20;;;3.05;;
61635;SDS011;59438;45.014;39.006;2022-10-16T01:49:43;4.85;;;3.17;;
61635;SDS011;59438;45.014;39.006;2022-10-16T01:52:12;7.95;;;3.15;;
61635;SDS011;59438;45.014;39.006;2022-10-16T01:54:43;9.48;;;3.50;;
61635;SDS011;59438;45.014;39.006;2022-10-16T01:57:13;5.67;;;2.50;;
61635;SDS011;59438;45.014;39.006;2022-10-16T01:59:44;4.57;;;2.78;;
61635;SDS011;59438;45.014;39.006;2022-10-16T02:02:15;5.82;;;2.88;;
61635;SDS011;59438;45.014;39.006;2022-10-16T02:04:45;3.80;;;2.83;;
61635;SDS011;59438;45.014;39.006;2022-10-16T02:07:14;4.20;;;2.90;;
61635;SDS011;59438;45.014;39.006;2022-10-16T02:09:41;4.05;;;3.00;;
61635;SDS011;59438;45.014;39.006;2022-10-16T02:12:09;6.60;;;3.22;;
61635;SDS011;59438;45.014;39.006;2022-10-16T02:14:40;4.95;;;3.20;;
61635;SDS011;59438;45.014;39.006;2022-10-16T02:17:13;5.20;;;2.60;;
61635;SDS011;59438;45.014;39.006;2022-10-16T02:19:41;8.52;;;3.17;;
61635;SDS011;59438;45.014;39.006;2022-10-16T02:22:09;4.53;;;2.40;;
61635;SDS011;59438;45.014;39.006;2022-10-16T02:24:42;7.28;;;3.15;;
61635;SDS011;59438;45.014;39.006;2022-10-16T02:27:17;5.13;;;2.45;;
61635;SDS011;59438;45.014;39.006;2022-10-16T02:29:50;6.78;;;3.10;;
61635;SDS011;59438;45.014;39.006;2022-10-16T02:32:21;4.78;;;2.50;;
61635;SDS011;59438;45.014;39.006;2022-10-16T02:34:50;4.60;;;2.85;;
61635;SDS011;59438;45.014;39.006;2022-10-16T02:37:17;5.15;;;3.05;;
61635;SDS011;59438;45.014;39.006;2022-10-16T02:39:45;5.97;;;2.70;;
61635;SDS011;59438;45.014;39.006;2022-10-16T02:42:12;7.35;;;3.00;;
61635;SDS011;59438;45.014;39.006;2022-10-16T02:44:39;5.53;;;2.90;;
61635;SDS011;59438;45.014;39.006;2022-10-16T02:47:06;4.40;;;2.53;;
61635;SDS011;59438;45.014;39.006;2022-10-16T02:49:34;5.00;;;3.40;;
61635;SDS011;59438;45.014;39.006;2022-10-16T02:52:00;4.32;;;2.60;;
61635;SDS011;59438;45.014;39.006;2022-10-16T02:54:27;6.40;;;3.08;;
61635;SDS011;59438;45.014;39.006;2022-10-16T02:56:53;3.95;;;2.50;;
61635;SDS011;59438;45.014;39.006;2022-10-16T02:59:19;4.38;;;2.72;;
61635;SDS011;59438;45.014;39.006;2022-10-16T03:01:48;4.22;;;2.80;;
61635;SDS011;59438;45.014;39.006;2022-10-16T03:04:17;3.30;;;2.40;;
61635;SDS011;59438;45.014;39.006;2022-10-16T03:06:45;5.25;;;2.80;;
61635;SDS011;59438;45.014;39.006;2022-10-16T03:09:12;5.97;;;2.70;;
61635;SDS011;59438;45.014;39.006;2022-10-16T03:11:38;4.05;;;2.60;;
61635;SDS011;59438;45.014;39.006;2022-10-16T03:14:05;3.67;;;2.80;;
61635;SDS011;59438;45.014;39.006;2022-10-16T03:16:31;5.10;;;2.50;;
61635;SDS011;59438;45.014;39.006;2022-10-16T03:18:57;3.35;;;2.25;;
61635;SDS011;59438;45.014;39.006;2022-10-16T03:21:24;5.10;;;2.92;;
61635;SDS011;59438;45.014;39.006;2022-10-16T03:23:52;6.28;;;2.35;;
61635;SDS011;59438;45.014;39.006;2022-10-16T03:26:18;4.70;;;3.00;;
61635;SDS011;59438;45.014;39.006;2022-10-16T03:28:44;3.85;;;2.45;;
61635;SDS011;59438;45.014;39.006;2022-10-16T03:31:12;3.80;;;2.53;;
61635;SDS011;59438;45.014;39.006;2022-10-16T03:33:39;3.42;;;2.28;;
61635;SDS011;59438;45.014;39.006;2022-10-16T03:36:05;4.85;;;2.42;;
61635;SDS011;59438;45.014;39.006;2022-10-16T03:38:31;4.78;;;3.00;;
61635;SDS011;59438;45.014;39.006;2022-10-16T03:40:59;4.95;;;2.85;;
61635;SDS011;59438;45.014;39.006;2022-10-16T03:43:26;5.75;;;2.58;;
61635;SDS011;59438;45.014;39.006;2022-10-16T03:45:52;5.13;;;2.97;;
61635;SDS011;59438;45.014;39.006;2022-10-16T03:48:19;5.30;;;2.63;;
61635;SDS011;59438;45.014;39.006;2022-10-16T03:50:45;5.43;;;2.95;;
61635;SDS011;59438;45.014;39.006;2022-10-16T03:53:11;3.80;;;2.63;;
61635;SDS011;59438;45.014;39.006;2022-10-16T03:55:38;5.30;;;2.88;;
61635;SDS011;59438;45.014;39.006;2022-10-16T03:58:08;8.45;;;3.25;;
61635;SDS011;59438;45.014;39.006;2022-10-16T04:00:34;8.30;;;3.25;;
61635;SDS011;59438;45.014;39.006;2022-10-16T04:03:00;4.57;;;2.97;;
61635;SDS011;59438;45.014;39.006;2022-10-16T04:05:27;3.83;;;2.67;;
61635;SDS011;59438;45.014;39.006;2022-10-16T04:07:53;7.32;;;3.35;;
61635;SDS011;59438;45.014;39.006;2022-10-16T04:10:20;8.25;;;3.42;;
61635;SDS011;59438;45.014;39.006;2022-10-16T04:12:46;6.82;;;3.40;;
61635;SDS011;59438;45.014;39.006;2022-10-16T04:15:14;5.07;;;2.92;;
61635;SDS011;59438;45.014;39.006;2022-10-16T04:17:40;4.93;;;2.47;;
61635;SDS011;59438;45.014;39.006;2022-10-16T04:20:07;4.50;;;2.38;;
61635;SDS011;59438;45.014;39.006;2022-10-16T04:22:34;5.03;;;2.90;;
61635;SDS011;59438;45.014;39.006;2022-10-16T04:25:00;4.13;;;2.90;;
61635;SDS011;59438;45.014;39.006;2022-10-16T04:27:27;7.13;;;2.92;;
61635;SDS011;59438;45.014;39.006;2022-10-16T04:29:53;4.30;;;2.17;;
61635;SDS011;59438;45.014;39.006;2022-10-16T04:32:21;4.47;;;2.75;;
61635;SDS011;59438;45.014;39.006;2022-10-16T04:34:47;3.33;;;2.65;;
61635;SDS011;59438;45.014;39.006;2022-10-16T04:37:14;5.32;;;2.58;;
61635;SDS011;59438;45.014;39.006;2022-10-16T04:39:40;6.93;;;3.20;;
61635;SDS011;59438;45.014;39.006;2022-10-16T04:42:06;4.97;;;2.47;;
61635;SDS011;59438;45.014;39.006;2022-10-16T04:44:33;4.38;;;2.80;;
61635;SDS011;59438;45.014;39.006;2022-10-16T04:46:59;4.25;;;2.50;;
61635;SDS011;59438;45.014;39.006;2022-10-16T04:49:27;4.68;;;2.75;;
61635;SDS011;59438;45.014;39.006;2022-10-16T04:51:53;5.88;;;2.80;;
61635;SDS011;59438;45.014;39.006;2022-10-16T04:54:20;4.47;;;2.70;;
61635;SDS011;59438;45.014;39.006;2022-10-16T04:56:46;6.93;;;2.72;;
61635;SDS011;59438;45.014;39.006;2022-10-16T04:59:13;4.90;;;2.78;;
61635;SDS011;59438;45.014;39.006;2022-10-16T05:01:39;5.50;;;3.13;;
61635;SDS011;59438;45.014;39.006;2022-10-16T05:04:06;5.60;;;3.30;;
61635;SDS011;59438;45.014;39.006;2022-10-16T05:06:34;5.25;;;2.53;;
61635;SDS011;59438;45.014;39.006;2022-10-16T05:09:00;10.75;;;3.53;;
61635;SDS011;59438;45.014;39.006;2022-10-16T05:11:26;6.63;;;3.05;;
61635;SDS011;59438;45.014;39.006;2022-10-16T05:13:53;8.02;;;3.15;;
61635;SDS011;59438;45.014;39.006;2022-10-16T05:16:20;6.47;;;3.58;;
61635;SDS011;59438;45.014;39.006;2022-10-16T05:18:46;5.57;;;3.20;;
61635;SDS011;59438;45.014;39.006;2022-10-16T05:21:12;7.80;;;3.63;;
61635;SDS011;59438;45.014;39.006;2022-10-16T05:23:40;7.68;;;3.10;;
61635;SDS011;59438;45.014;39.006;2022-10-16T05:26:07;6.25;;;3.97;;
61635;SDS011;59438;45.014;39.006;2022-10-16T05:28:34;5.35;;;3.15;;
61635;SDS011;59438;45.014;39.006;2022-10-16T05:31:03;6.55;;;3.38;;
61635;SDS011;59438;45.014;39.006;2022-10-16T05:33:30;6.50;;;3.50;;
61635;SDS011;59438;45.014;39.006;2022-10-16T05:35:56;7.97;;;3.78;;
61635;SDS011;59438;45.014;39.006;2022-10-16T05:38:26;7.03;;;3.47;;
61635;SDS011;59438;45.014;39.006;2022-10-16T05:40:54;4.95;;;3.20;;
61635;SDS011;59438;45.014;39.006;2022-10-16T05:43:20;6.03;;;3.58;;
61635;SDS011;59438;45.014;39.006;2022-10-16T05:45:53;7.03;;;3.38;;
61635;SDS011;59438;45.014;39.006;2022-10-16T05:48:20;10.40;;;3.75;;
61635;SDS011;59438;45.014;39.006;2022-10-16T05:50:46;7.57;;;3.20;;
61635;SDS011;59438;45.014;39.006;2022-10-16T05:53:12;6.20;;;2.92;;
61635;SDS011;59438;45.014;39.006;2022-10-16T05:55:39;6.63;;;2.90;;
61635;SDS011;59438;45.014;39.006;2022-10-16T05:58:07;8.80;;;3.65;;
61635;SDS011;59438;45.014;39.006;2022-10-16T06:00:34;7.60;;;3.30;;
61635;SDS011;59438;45.014;39.006;2022-10-16T06:03:00;4.68;;;3.10;;
61635;SDS011;59438;45.014;39.006;2022-10-16T06:05:26;6.95;;;3.22;;
61635;SDS011;59438;45.014;39.006;2022-10-16T06:07:53;8.45;;;2.50;;
61635;SDS011;59438;45.014;39.006;2022-10-16T06:10:19;4.75;;;2.88;;
61635;SDS011;59438;45.014;39.006;2022-10-16T06:12:46;5.00;;;2.92;;
61635;SDS011;59438;45.014;39.006;2022-10-16T06:15:14;4.28;;;2.95;;
61635;SDS011;59438;45.014;39.006;2022-10-16T06:17:40;8.50;;;2.78;;
61635;SDS011;59438;45.014;39.006;2022-10-16T06:20:07;4.28;;;2.38;;
61635;SDS011;59438;45.014;39.006;2022-10-16T06:22:34;4.05;;;3.00;;
61635;SDS011;59438;45.014;39.006;2022-10-16T06:25:00;3.00;;;2.13;;
61635;SDS011;59438;45.014;39.006;2022-10-16T06:27:26;5.22;;;2.85;;
61635;SDS011;59438;45.014;39.006;2022-10-16T06:29:53;5.93;;;3.00;;
61635;SDS011;59438;45.014;39.006;2022-10-16T06:32:21;9.90;;;2.92;;
61635;SDS011;59438;45.014;39.006;2022-10-16T06:34:47;7.75;;;2.70;;
61635;SDS011;59438;45.014;39.006;2022-10-16T06:37:13;5.70;;;2.88;;
61635;SDS011;59438;45.014;39.006;2022-10-16T06:39:40;3.53;;;2.53;;
61635;SDS011;59438;45.014;39.006;2022-10-16T06:42:06;6.43;;;2.50;;
61635;SDS011;59438;45.014;39.006;2022-10-16T06:44:32;3.83;;;2.22;;
61635;SDS011;59438;45.014;39.006;2022-10-16T06:46:59;3.22;;;2.53;;
61635;SDS011;59438;45.014;39.006;2022-10-16T06:49:27;4.05;;;2.65;;
61635;SDS011;59438;45.014;39.006;2022-10-16T06:51:53;4.22;;;2.60;;
61635;SDS011;59438;45.014;39.006;2022-10-16T06:54:19;3.33;;;2.20;;
61635;SDS011;59438;45.014;39.006;2022-10-16T06:56:46;6.32;;;2.90;;
61635;SDS011;59438;45.014;39.006;2022-10-16T06:59:12;7.30;;;2.35;;
61635;SDS011;59438;45.014;39.006;2022-10-16T07:01:38;5.20;;;2.70;;
61635;SDS011;59438;45.014;39.006;2022-10-16T07:04:05;6.70;;;2.42;;
61635;SDS011;59438;45.014;39.006;2022-10-16T07:06:33;6.60;;;3.30;;
61635;SDS011;59438;45.014;39.006;2022-10-16T07:09:01;3.20;;;2.40;;
61635;SDS011;59438;45.014;39.006;2022-10-16T07:11:28;2.58;;;2.10;;
61635;SDS011;59438;45.014;39.006;2022-10-16T07:13:54;5.47;;;3.08;;
61635;SDS011;59438;45.014;39.006;2022-10-16T07:16:22;2.90;;;2.50;;
61635;SDS011;59438;45.014;39.006;2022-10-16T07:18:49;3.97;;;2.75;;
61635;SDS011;59438;45.014;39.006;2022-10-16T07:21:16;5.38;;;2.95;;
61635;SDS011;59438;45.014;39.006;2022-10-16T07:23:45;4.80;;;2.75;;
61635;SDS011;59438;45.014;39.006;2022-10-16T07:26:15;5.05;;;2.65;;
61635;SDS011;59438;45.014;39.006;2022-10-16T07:28:42;3.55;;;2.53;;
61635;SDS011;59438;45.014;39.006;2022-10-16T07:31:09;5.43;;;2.95;;
61635;SDS011;59438;45.014;39.006;2022-10-16T07:33:37;2.67;;;1.85;;
61635;SDS011;59438;45.014;39.006;2022-10-16T07:36:05;4.13;;;2.60;;
61635;SDS011;59438;45.014;39.006;2022-10-16T07:38:31;6.18;;;2.28;;
61635;SDS011;59438;45.014;39.006;2022-10-16T07:41:00;4.72;;;2.97;;
61635;SDS011;59438;45.014;39.006;2022-10-16T07:43:28;4.10;;;2.80;;
61635;SDS011;59438;45.014;39.006;2022-10-16T07:45:55;10.30;;;3.20;;
61635;SDS011;59438;45.014;39.006;2022-10-16T07:48:22;4.80;;;2.70;;
61635;SDS011;59438;45.014;39.006;2022-10-16T07:50:49;3.55;;;2.30;;
61635;SDS011;59438;45.014;39.006;2022-10-16T07:53:15;9.50;;;2.90;;
61635;SDS011;59438;45.014;39.006;2022-10-16T07:55:42;5.30;;;2.97;;
61635;SDS011;59438;45.014;39.006;2022-10-16T07:58:10;3.38;;;2.60;;
61635;SDS011;59438;45.014;39.006;2022-10-16T08:00:37;4.13;;;3.08;;
61635;SDS011;59438;45.014;39.006;2022-10-16T08:03:03;2.83;;;2.40;;
61635;SDS011;59438;45.014;39.006;2022-10-16T08:05:30;5.70;;;2.83;;
61635;SDS011;59438;45.014;39.006;2022-10-16T08:07:57;6.45;;;2.90;;
61635;SDS011;59438;45.014;39.006;2022-10-16T08:10:25;7.00;;;3.17;;
61635;SDS011;59438;45.014;39.006;2022-10-16T08:12:52;5.97;;;2.47;;
61635;SDS011;59438;45.014;39.006;2022-10-16T08:15:21;5.95;;;2.72;;
61635;SDS011;59438;45.014;39.006;2022-10-16T08:17:54;5.35;;;2.70;;
61635;SDS011;59438;45.014;39.006;2022-10-16T08:20:21;4.65;;;3.00;;
61635;SDS011;59438;45.014;39.006;2022-10-16T08:22:47;7.63;;;3.00;;
61635;SDS011;59438;45.014;39.006;2022-10-16T08:25:13;11.80;;;3.40;;
61635;SDS011;59438;45.014;39.006;2022-10-16T08:27:40;5.28;;;2.92;;
61635;SDS011;59438;45.014;39.006;2022-10-16T08:30:07;4.43;;;2.42;;
61635;SDS011;59438;45.014;39.006;2022-10-16T08:32:36;4.55;;;2.67;;
61635;SDS011;59438;45.014;39.006;2022-10-16T08:35:02;5.65;;;2.70;;
61635;SDS011;59438;45.014;39.006;2022-10-16T08:37:29;3.28;;;2.25;;
61635;SDS011;59438;45.014;39.006;2022-10-16T08:39:56;5.75;;;2.40;;
61635;SDS011;59438;45.014;39.006;2022-10-16T08:42:27;6.18;;;2.50;;
61635;SDS011;59438;45.014;39.006;2022-10-16T08:45:09;2.97;;;2.08;;
61635;SDS011;59438;45.014;39.006;2022-10-16T08:47:49;4.45;;;1.92;;
61635;SDS011;59438;45.014;39.006;2022-10-16T08:50:24;5.40;;;2.95;;
61635;SDS011;59438;45.014;39.006;2022-10-16T08:52:52;2.28;;;2.00;;
61635;SDS011;59438;45.014;39.006;2022-10-16T08:55:29;4.07;;;2.67;;
61635;SDS011;59438;45.014;39.006;2022-10-16T08:57:58;3.53;;;2.30;;
61635;SDS011;59438;45.014;39.006;2022-10-16T09:00:25;7.15;;;2.90;;
61635;SDS011;59438;45.014;39.006;2022-10-16T09:02:55;3.72;;;2.60;;
61635;SDS011;59438;45.014;39.006;2022-10-16T09:05:40;6.47;;;2.90;;
61635;SDS011;59438;45.014;39.006;2022-10-16T09:08:19;3.97;;;2.72;;
61635;SDS011;59438;45.014;39.006;2022-10-16T09:10:54;4.20;;;2.88;;
61635;SDS011;59438;45.014;39.006;2022-10-16T09:13:25;3.90;;;2.78;;
61635;SDS011;59438;45.014;39.006;2022-10-16T09:15:56;7.38;;;3.53;;
61635;SDS011;59438;45.014;39.006;2022-10-16T09:18:37;5.38;;;2.78;;
61635;SDS011;59438;45.014;39.006;2022-10-16T09:21:09;5.38;;;3.05;;
61635;SDS011;59438;45.014;39.006;2022-10-16T09:23:41;7.35;;;3.35;;
61635;SDS011;59438;45.014;39.006;2022-10-16T09:26:10;4.00;;;2.90;;
61635;SDS011;59438;45.014;39.006;2022-10-16T09:28:38;4.72;;;3.28;;
61635;SDS011;59438;45.014;39.006;2022-10-16T09:31:07;5.95;;;2.75;;
61635;SDS011;59438;45.014;39.006;2022-10-16T09:33:40;6.03;;;2.83;;
61635;SDS011;59438;45.014;39.006;2022-10-16T09:36:08;4.47;;;3.13;;
61635;SDS011;59438;45.014;39.006;2022-10-16T09:38:36;3.58;;;2.88;;
61635;SDS011;59438;45.014;39.006;2022-10-16T09:41:10;4.47;;;3.40;;
61635;SDS011;59438;45.014;39.006;2022-10-16T09:43:45;5.00;;;3.40;;
61635;SDS011;59438;45.014;39.006;2022-10-16T09:46:21;3.72;;;2.50;;
61635;SDS011;59438;45.014;39.006;2022-10-16T09:48:51;5.82;;;3.58;;
61635;SDS011;59438;45.014;39.006;2022-10-16T09:51:21;7.55;;;3.58;;
61635;SDS011;59438;45.014;39.006;2022-10-16T09:53:54;5.78;;;3.38;;
61635;SDS011;59438;45.014;39.006;2022-10-16T09:56:22;5.32;;;3.33;;
61635;SDS011;59438;45.014;39.006;2022-10-16T09:58:49;4.60;;;3.40;;
61635;SDS011;59438;45.014;39.006;2022-10-16T10:01:16;3.72;;;2.10;;
61635;SDS011;59438;45.014;39.006;2022-10-16T10:03:46;5.18;;;3.28;;
61635;SDS011;59438;45.014;39.006;2022-10-16T10:06:18;6.10;;;3.22;;
61635;SDS011;59438;45.014;39.006;2022-10-16T10:08:54;6.15;;;4.05;;
61635;SDS011;59438;45.014;39.006;2022-10-16T10:17:02;9.23;;;4.05;;
61635;SDS011;59438;45.014;39.006;2022-10-16T10:19:39;7.35;;;5.10;;
61635;SDS011;59438;45.014;39.006;2022-10-16T10:25:07;7.82;;;3.90;;
61635;SDS011;59438;45.014;39.006;2022-10-16T10:27:48;4.88;;;3.22;;
61635;SDS011;59438;45.014;39.006;2022-10-16T10:30:26;4.68;;;3.50;;
61635;SDS011;59438;45.014;39.006;2022-10-16T10:33:05;4.78;;;3.40;;
61635;SDS011;59438;45.014;39.006;2022-10-16T10:35:42;5.93;;;4.03;;
61635;SDS011;59438;45.014;39.006;2022-10-16T10:38:20;5.65;;;4.10;;
61635;SDS011;59438;45.014;39.006;2022-10-16T10:40:57;6.93;;;3.63;;
61635;SDS011;59438;45.014;39.006;2022-10-16T10:43:39;4.35;;;3.30;;
61635;SDS011;59438;45.014;39.006;2022-10-16T10:46:19;4.57;;;3.55;;
61635;SDS011;59438;45.014;39.006;2022-10-16T10:51:47;5.78;;;2.92;;
61635;SDS011;59438;45.014;39.006;2022-10-16T10:54:25;5.10;;;3.10;;
61635;SDS011;59438;45.014;39.006;2022-10-16T10:56:59;5.45;;;2.92;;
61635;SDS011;59438;45.014;39.006;2022-10-16T10:59:49;7.35;;;3.50;;
61635;SDS011;59438;45.014;39.006;2022-10-16T11:02:25;5.85;;;2.60;;
61635;SDS011;59438;45.014;39.006;2022-10-16T11:07:54;4.85;;;3.20;;
61635;SDS011;59438;45.014;39.006;2022-10-16T11:10:26;3.95;;;3.05;;
61635;SDS011;59438;45.014;39.006;2022-10-16T11:12:58;8.27;;;2.53;;
61635;SDS011;59438;45.014;39.006;2022-10-16T11:15:31;7.97;;;3.33;;
61635;SDS011;59438;45.014;39.006;2022-10-16T11:18:03;10.43;;;3.83;;
61635;SDS011;59438;45.014;39.006;2022-10-16T11:20:34;6.28;;;3.65;;
61635;SDS011;59438;45.014;39.006;2022-10-16T11:23:07;4.38;;;2.80;;
61635;SDS011;59438;45.014;39.006;2022-10-16T11:25:42;6.53;;;3.08;;
61635;SDS011;59438;45.014;39.006;2022-10-16T11:28:11;7.70;;;3.40;;
61635;SDS011;59438;45.014;39.006;2022-10-16T11:30:41;3.53;;;2.60;;
61635;SDS011;59438;45.014;39.006;2022-10-16T11:33:20;10.88;;;3.25;;
61635;SDS011;59438;45.014;39.006;2022-10-16T11:35:53;4.75;;;3.22;;
61635;SDS011;59438;45.014;39.006;2022-10-16T11:38:26;7.78;;;3.40;;
61635;SDS011;59438;45.014;39.006;2022-10-16T11:41:00;5.13;;;2.78;;
61635;SDS011;59438;45.014;39.006;2022-10-16T11:43:35;8.20;;;3.10;;
61635;SDS011;59438;45.014;39.006;2022-10-16T11:48:36;4.93;;;2.58;;
61635;SDS011;59438;45.014;39.006;2022-10-16T11:51:11;8.50;;;3.10;;
61635;SDS011;59438;45.014;39.006;2022-10-16T11:53:45;9.98;;;4.80;;
61635;SDS011;59438;45.014;39.006;2022-10-16T11:56:20;8.93;;;3.47;;
61635;SDS011;59438;45.014;39.006;2022-10-16T11:58:50;6.32;;;2.60;;
61635;SDS011;59438;45.014;39.006;2022-10-16T12:01:24;6.47;;;2.95;;
61635;SDS011;59438;45.014;39.006;2022-10-16T12:03:59;4.07;;;2.70;;
61635;SDS011;59438;45.014;39.006;2022-10-16T12:06:37;4.28;;;2.13;;
61635;SDS011;59438;45.014;39.006;2022-10-16T12:09:09;3.47;;;2.60;;
61635;SDS011;59438;45.014;39.006;2022-10-16T12:11:43;7.40;;;2.33;;
61635;SDS011;59438;45.014;39.006;2022-10-16T12:14:21;6.60;;;2.55;;
61635;SDS011;59438;45.014;39.006;2022-10-16T12:17:01;9.90;;;2.80;;
61635;SDS011;59438;45.014;39.006;2022-10-16T12:19:29;6.72;;;2.50;;
61635;SDS011;59438;45.014;39.006;2022-10-16T12:21:57;3.53;;;2.15;;
61635;SDS011;59438;45.014;39.006;2022-10-16T12:24:31;6.35;;;2.88;;
61635;SDS011;59438;45.014;39.006;2022-10-16T12:27:01;3.95;;;2.22;;
61635;SDS011;59438;45.014;39.006;2022-10-16T12:29:32;3.80;;;1.88;;
61635;SDS011;59438;45.014;39.006;2022-10-16T12:32:02;7.72;;;2.42;;
61635;SDS011;59438;45.014;39.006;2022-10-16T12:34:32;5.03;;;2.40;;
61635;SDS011;59438;45.014;39.006;2022-10-16T12:37:09;8.07;;;2.25;;
61635;SDS011;59438;45.014;39.006;2022-10-16T12:39:39;5.13;;;1.77;;
61635;SDS011;59438;45.014;39.006;2022-10-16T12:42:19;4.22;;;2.00;;
61635;SDS011;59438;45.014;39.006;2022-10-16T12:44:48;4.63;;;2.28;;
61635;SDS011;59438;45.014;39.006;2022-10-16T12:47:22;5.68;;;2.50;;
61635;SDS011;59438;45.014;39.006;2022-10-16T12:50:00;5.18;;;2.13;;
61635;SDS011;59438;45.014;39.006;2022-10-16T12:52:27;7.72;;;2.25;;
61635;SDS011;59438;45.014;39.006;2022-10-16T12:55:00;4.63;;;2.58;;
61635;SDS011;59438;45.014;39.006;2022-10-16T12:57:32;3.72;;;1.88;;
61635;SDS011;59438;45.014;39.006;2022-10-16T13:00:12;8.63;;;5.07;;
61635;SDS011;59438;45.014;39.006;2022-10-16T13:02:55;6.90;;;3.20;;
61635;SDS011;59438;45.014;39.006;2022-10-16T13:05:44;6.03;;;1.77;;
61635;SDS011;59438;45.014;39.006;2022-10-16T13:08:25;6.80;;;2.20;;
61635;SDS011;59438;45.014;39.006;2022-10-16T13:11:05;3.20;;;1.40;;
61635;SDS011;59438;45.014;39.006;2022-10-16T13:13:50;5.05;;;2.58;;
61635;SDS011;59438;45.014;39.006;2022-10-16T13:16:36;3.65;;;1.80;;
61635;SDS011;59438;45.014;39.006;2022-10-16T13:19:15;5.88;;;2.08;;
61635;SDS011;59438;45.014;39.006;2022-10-16T13:21:50;7.63;;;2.03;;
61635;SDS011;59438;45.014;39.006;2022-10-16T13:24:26;4.70;;;2.08;;
61635;SDS011;59438;45.014;39.006;2022-10-16T13:27:20;7.70;;;2.35;;
61635;SDS011;59438;45.014;39.006;2022-10-16T13:30:00;8.82;;;2.13;;
61635;SDS011;59438;45.014;39.006;2022-10-16T13:32:35;7.68;;;2.08;;
61635;SDS011;59438;45.014;39.006;2022-10-16T13:35:01;6.63;;;2.20;;
61635;SDS011;59438;45.014;39.006;2022-10-16T13:37:28;11.00;;;2.03;;
61635;SDS011;59438;45.014;39.006;2022-10-16T13:40:02;2.88;;;1.85;;
61635;SDS011;59438;45.014;39.006;2022-10-16T13:42:33;4.80;;;2.40;;
61635;SDS011;59438;45.014;39.006;2022-10-16T13:45:01;4.05;;;1.85;;
61635;SDS011;59438;45.014;39.006;2022-10-16T13:47:28;3.72;;;2.40;;
61635;SDS011;59438;45.014;39.006;2022-10-16T13:49:59;5.32;;;1.98;;
61635;SDS011;59438;45.014;39.006;2022-10-16T13:52:27;6.78;;;2.15;;
61635;SDS011;59438;45.014;39.006;2022-10-16T13:54:53;5.43;;;2.22;;
61635;SDS011;59438;45.014;39.006;2022-10-16T13:57:21;6.25;;;2.00;;
61635;SDS011;59438;45.014;39.006;2022-10-16T13:59:49;4.05;;;2.35;;
61635;SDS011;59438;45.014;39.006;2022-10-16T14:02:20;6.80;;;2.70;;
61635;SDS011;59438;45.014;39.006;2022-10-16T14:04:51;6.05;;;2.70;;
61635;SDS011;59438;45.014;39.006;2022-10-16T14:07:20;9.18;;;2.67;;
61635;SDS011;59438;45.014;39.006;2022-10-16T14:09:50;8.52;;;3.17;;
61635;SDS011;59438;45.014;39.006;2022-10-16T14:12:17;13.60;;;3.20;;
61635;SDS011;59438;45.014;39.006;2022-10-16T14:14:44;9.43;;;5.75;;
61635;SDS011;59438;45.014;39.006;2022-10-16T14:17:14;28.45;;;12.95;;
61635;SDS011;59438;45.014;39.006;2022-10-16T14:19:44;10.20;;;5.50;;
61635;SDS011;59438;45.014;39.006;2022-10-16T14:22:19;12.43;;;4.22;;
61635;SDS011;59438;45.014;39.006;2022-10-16T14:24:52;15.80;;;7.75;;
61635;SDS011;59438;45.014;39.006;2022-10-16T14:27:23;31.55;;;13.82;;
61635;SDS011;59438;45.014;39.006;2022-10-16T14:30:05;15.43;;;8.07;;
61635;SDS011;59438;45.014;39.006;2022-10-16T14:32:39;17.13;;;7.75;;
61635;SDS011;59438;45.014;39.006;2022-10-16T14:35:21;15.52;;;7.55;;
61635;SDS011;59438;45.014;39.006;2022-10-16T14:37:51;14.75;;;6.50;;
61635;SDS011;59438;45.014;39.006;2022-10-16T14:40:18;16.73;;;7.97;;
61635;SDS011;59438;45.014;39.006;2022-10-16T14:42:46;15.95;;;9.05;;
61635;SDS011;59438;45.014;39.006;2022-10-16T14:45:12;12.52;;;6.30;;
61635;SDS011;59438;45.014;39.006;2022-10-16T14:47:47;11.05;;;5.53;;
61635;SDS011;59438;45.014;39.006;2022-10-16T14:50:17;16.27;;;7.50;;
61635;SDS011;59438;45.014;39.006;2022-10-16T14:52:43;12.70;;;6.10;;
61635;SDS011;59438;45.014;39.006;2022-10-16T14:55:10;16.80;;;5.45;;
61635;SDS011;59438;45.014;39.006;2022-10-16T14:57:36;42.45;;;4.97;;
61635;SDS011;59438;45.014;39.006;2022-10-16T15:00:06;14.80;;;4.07;;
61635;SDS011;59438;45.014;39.006;2022-10-16T15:02:39;7.28;;;4.65;;
61635;SDS011;59438;45.014;39.006;2022-10-16T15:05:10;8.57;;;3.78;;
61635;SDS011;59438;45.014;39.006;2022-10-16T15:07:40;8.40;;;3.55;;
61635;SDS011;59438;45.014;39.006;2022-10-16T15:10:07;8.68;;;3.35;;